Temvik, North Dakota
Current Conditions -  °F | °C
As of 10:55 AM on Sunday 23 Nov 2014 (Local Time) from K7L2 Reporting Station
Overcast Overcast  
Wind Chill: 19°   Ceiling: 3100
Heat Index: 34°   Visibility: 10mi
Dew Point: 23°   Wind: 36mph
Humidity: 65%   Direction: 300°WNW
Pressure: 29.54"   Gusts: 45mph
Location:  46.3287°N, 100.226°W
Report Text: K7L2 231655Z AUTO 30031G39KT 10SM OVC031 01/M05 A2954 RMK AO2
Loading
Personal Weather Stations






























Interactive Weather Map New forecast layout! Learn more

10-Day Weather Forecast

Advertisements
Track Severe Weather on mobile